sensor_id;sensor_type;location;lat;lon;timestamp;P1;durP1;ratioP1;P2;durP2;ratioP2
7215;SDS011;3649;48.798;9.798;2022-09-13T00:01:11;6.87;;;4.53;;
7215;SDS011;3649;48.798;9.798;2022-09-13T00:03:38;4.57;;;4.20;;
7215;SDS011;3649;48.798;9.798;2022-09-13T00:06:09;4.53;;;4.07;;
7215;SDS011;3649;48.798;9.798;2022-09-13T00:08:39;5.10;;;4.20;;
7215;SDS011;3649;48.798;9.798;2022-09-13T00:11:06;6.13;;;4.40;;
7215;SDS011;3649;48.798;9.798;2022-09-13T00:13:39;4.83;;;4.43;;
7215;SDS011;3649;48.798;9.798;2022-09-13T00:16:14;5.97;;;4.20;;
7215;SDS011;3649;48.798;9.798;2022-09-13T00:18:42;4.73;;;4.23;;
7215;SDS011;3649;48.798;9.798;2022-09-13T00:21:10;5.77;;;4.20;;
7215;SDS011;3649;48.798;9.798;2022-09-13T00:23:39;4.97;;;4.50;;
7215;SDS011;3649;48.798;9.798;2022-09-13T00:26:10;5.70;;;4.40;;
7215;SDS011;3649;48.798;9.798;2022-09-13T00:28:40;6.47;;;4.67;;
7215;SDS011;3649;48.798;9.798;2022-09-13T00:31:07;4.47;;;4.07;;
7215;SDS011;3649;48.798;9.798;2022-09-13T00:33:35;4.63;;;4.23;;
7215;SDS011;3649;48.798;9.798;2022-09-13T00:36:05;6.77;;;4.17;;
7215;SDS011;3649;48.798;9.798;2022-09-13T00:38:40;5.90;;;3.87;;
7215;SDS011;3649;48.798;9.798;2022-09-13T00:41:13;5.23;;;3.87;;
7215;SDS011;3649;48.798;9.798;2022-09-13T00:46:19;4.87;;;4.07;;
7215;SDS011;3649;48.798;9.798;2022-09-13T00:48:51;7.10;;;4.03;;
7215;SDS011;3649;48.798;9.798;2022-09-13T00:51:24;6.70;;;4.30;;
7215;SDS011;3649;48.798;9.798;2022-09-13T00:53:52;5.33;;;3.83;;
7215;SDS011;3649;48.798;9.798;2022-09-13T00:56:23;6.37;;;4.47;;
7215;SDS011;3649;48.798;9.798;2022-09-13T00:58:59;5.30;;;4.30;;
7215;SDS011;3649;48.798;9.798;2022-09-13T01:01:41;4.87;;;4.10;;
7215;SDS011;3649;48.798;9.798;2022-09-13T01:04:13;4.53;;;4.13;;
7215;SDS011;3649;48.798;9.798;2022-09-13T01:06:41;4.53;;;4.10;;
7215;SDS011;3649;48.798;9.798;2022-09-13T01:09:09;4.80;;;4.10;;
7215;SDS011;3649;48.798;9.798;2022-09-13T01:14:18;6.03;;;3.90;;
7215;SDS011;3649;48.798;9.798;2022-09-13T01:16:47;5.03;;;4.63;;
7215;SDS011;3649;48.798;9.798;2022-09-13T01:19:14;5.03;;;3.83;;
7215;SDS011;3649;48.798;9.798;2022-09-13T01:30:20;6.17;;;3.87;;
7215;SDS011;3649;48.798;9.798;2022-09-13T01:38:22;8.07;;;4.10;;
7215;SDS011;3649;48.798;9.798;2022-09-13T01:47:02;4.27;;;3.87;;
7215;SDS011;3649;48.798;9.798;2022-09-13T01:52:49;8.17;;;4.03;;
7215;SDS011;3649;48.798;9.798;2022-09-13T02:03:37;4.20;;;3.83;;
7215;SDS011;3649;48.798;9.798;2022-09-13T02:06:22;4.30;;;3.63;;
7215;SDS011;3649;48.798;9.798;2022-09-13T02:08:58;3.90;;;3.67;;
7215;SDS011;3649;48.798;9.798;2022-09-13T02:11:28;5.77;;;3.60;;
7215;SDS011;3649;48.798;9.798;2022-09-13T02:13:59;3.57;;;3.30;;
7215;SDS011;3649;48.798;9.798;2022-09-13T02:19:13;6.30;;;3.63;;
7215;SDS011;3649;48.798;9.798;2022-09-13T02:21:45;3.90;;;3.40;;
7215;SDS011;3649;48.798;9.798;2022-09-13T02:24:22;6.33;;;3.70;;
7215;SDS011;3649;48.798;9.798;2022-09-13T02:26:54;4.33;;;3.93;;
7215;SDS011;3649;48.798;9.798;2022-09-13T02:29:23;4.30;;;4.00;;
7215;SDS011;3649;48.798;9.798;2022-09-13T02:32:02;4.70;;;4.07;;
7215;SDS011;3649;48.798;9.798;2022-09-13T02:34:42;4.07;;;3.70;;
7215;SDS011;3649;48.798;9.798;2022-09-13T02:37:23;3.70;;;3.40;;
7215;SDS011;3649;48.798;9.798;2022-09-13T02:39:54;4.50;;;3.23;;
7215;SDS011;3649;48.798;9.798;2022-09-13T02:42:27;5.10;;;3.47;;
7215;SDS011;3649;48.798;9.798;2022-09-13T02:45:07;6.87;;;3.53;;
7215;SDS011;3649;48.798;9.798;2022-09-13T02:50:26;6.83;;;3.20;;
7215;SDS011;3649;48.798;9.798;2022-09-13T02:56:04;5.60;;;3.90;;
7215;SDS011;3649;48.798;9.798;2022-09-13T02:59:00;4.47;;;3.83;;
7215;SDS011;3649;48.798;9.798;2022-09-13T03:01:28;4.33;;;3.93;;
7215;SDS011;3649;48.798;9.798;2022-09-13T03:03:55;3.63;;;3.33;;
7215;SDS011;3649;48.798;9.798;2022-09-13T03:06:25;4.90;;;3.83;;
7215;SDS011;3649;48.798;9.798;2022-09-13T03:08:54;4.80;;;3.70;;
7215;SDS011;3649;48.798;9.798;2022-09-13T03:19:55;5.27;;;3.43;;
7215;SDS011;3649;48.798;9.798;2022-09-13T03:22:50;5.50;;;3.73;;
7215;SDS011;3649;48.798;9.798;2022-09-13T03:28:37;4.77;;;4.33;;
7215;SDS011;3649;48.798;9.798;2022-09-13T03:31:13;5.97;;;4.10;;
7215;SDS011;3649;48.798;9.798;2022-09-13T03:33:52;4.80;;;4.23;;
7215;SDS011;3649;48.798;9.798;2022-09-13T03:41:30;5.70;;;4.70;;
7215;SDS011;3649;48.798;9.798;2022-09-13T03:44:03;5.20;;;4.80;;
7215;SDS011;3649;48.798;9.798;2022-09-13T03:46:34;4.63;;;4.03;;
7215;SDS011;3649;48.798;9.798;2022-09-13T03:49:05;5.90;;;4.40;;
7215;SDS011;3649;48.798;9.798;2022-09-13T03:51:37;4.30;;;3.83;;
7215;SDS011;3649;48.798;9.798;2022-09-13T03:54:16;4.33;;;3.83;;
7215;SDS011;3649;48.798;9.798;2022-09-13T03:59:34;5.00;;;4.00;;
7215;SDS011;3649;48.798;9.798;2022-09-13T04:02:04;4.00;;;3.70;;
7215;SDS011;3649;48.798;9.798;2022-09-13T04:04:35;4.23;;;3.93;;
7215;SDS011;3649;48.798;9.798;2022-09-13T04:07:01;4.83;;;4.03;;
7215;SDS011;3649;48.798;9.798;2022-09-13T04:09:29;4.80;;;3.60;;
7215;SDS011;3649;48.798;9.798;2022-09-13T04:11:57;3.90;;;3.60;;
7215;SDS011;3649;48.798;9.798;2022-09-13T04:14:23;4.27;;;3.90;;
7215;SDS011;3649;48.798;9.798;2022-09-13T04:16:52;4.67;;;4.27;;
7215;SDS011;3649;48.798;9.798;2022-09-13T04:19:20;5.13;;;4.03;;
7215;SDS011;3649;48.798;9.798;2022-09-13T04:21:51;4.37;;;3.97;;
7215;SDS011;3649;48.798;9.798;2022-09-13T04:24:18;7.10;;;4.17;;
7215;SDS011;3649;48.798;9.798;2022-09-13T04:26:49;4.60;;;4.20;;
7215;SDS011;3649;48.798;9.798;2022-09-13T04:29:16;5.77;;;4.07;;
7215;SDS011;3649;48.798;9.798;2022-09-13T04:31:44;4.77;;;4.20;;
7215;SDS011;3649;48.798;9.798;2022-09-13T04:34:11;5.00;;;4.50;;
7215;SDS011;3649;48.798;9.798;2022-09-13T04:36:39;4.67;;;3.63;;
7215;SDS011;3649;48.798;9.798;2022-09-13T04:39:06;4.00;;;3.63;;
7215;SDS011;3649;48.798;9.798;2022-09-13T04:41:33;4.20;;;3.90;;
7215;SDS011;3649;48.798;9.798;2022-09-13T04:44:00;5.20;;;3.83;;
7215;SDS011;3649;48.798;9.798;2022-09-13T04:46:27;4.47;;;3.67;;
7215;SDS011;3649;48.798;9.798;2022-09-13T04:48:54;5.53;;;3.93;;
7215;SDS011;3649;48.798;9.798;2022-09-13T04:51:21;5.10;;;3.83;;
7215;SDS011;3649;48.798;9.798;2022-09-13T04:53:52;6.17;;;3.97;;
7215;SDS011;3649;48.798;9.798;2022-09-13T04:56:21;4.70;;;4.30;;
7215;SDS011;3649;48.798;9.798;2022-09-13T04:58:52;5.57;;;3.87;;
7215;SDS011;3649;48.798;9.798;2022-09-13T05:01:21;6.53;;;3.97;;
7215;SDS011;3649;48.798;9.798;2022-09-13T05:03:53;7.10;;;4.00;;
7215;SDS011;3649;48.798;9.798;2022-09-13T05:06:20;7.87;;;3.90;;
7215;SDS011;3649;48.798;9.798;2022-09-13T05:08:48;5.73;;;4.03;;
7215;SDS011;3649;48.798;9.798;2022-09-13T05:11:23;7.50;;;4.23;;
7215;SDS011;3649;48.798;9.798;2022-09-13T05:13:52;15.27;;;4.63;;
7215;SDS011;3649;48.798;9.798;2022-09-13T05:16:21;6.57;;;3.83;;
7215;SDS011;3649;48.798;9.798;2022-09-13T05:18:49;4.40;;;3.90;;
7215;SDS011;3649;48.798;9.798;2022-09-13T05:21:17;6.07;;;4.43;;
7215;SDS011;3649;48.798;9.798;2022-09-13T05:23:47;6.90;;;3.80;;
7215;SDS011;3649;48.798;9.798;2022-09-13T05:26:14;6.53;;;3.57;;
7215;SDS011;3649;48.798;9.798;2022-09-13T05:28:42;5.30;;;4.00;;
7215;SDS011;3649;48.798;9.798;2022-09-13T05:31:19;7.60;;;4.03;;
7215;SDS011;3649;48.798;9.798;2022-09-13T05:34:23;4.90;;;3.87;;
7215;SDS011;3649;48.798;9.798;2022-09-13T05:36:44;4.30;;;3.90;;
7215;SDS011;3649;48.798;9.798;2022-09-13T05:39:18;4.73;;;4.20;;
7215;SDS011;3649;48.798;9.798;2022-09-13T05:42:07;6.07;;;4.37;;
7215;SDS011;3649;48.798;9.798;2022-09-13T05:44:34;6.23;;;4.57;;
7215;SDS011;3649;48.798;9.798;2022-09-13T05:47:00;7.63;;;5.30;;
7215;SDS011;3649;48.798;9.798;2022-09-13T05:49:27;5.30;;;4.80;;
7215;SDS011;3649;48.798;9.798;2022-09-13T05:51:54;4.70;;;4.27;;
7215;SDS011;3649;48.798;9.798;2022-09-13T05:54:21;6.43;;;4.93;;
7215;SDS011;3649;48.798;9.798;2022-09-13T05:56:47;5.90;;;4.40;;
7215;SDS011;3649;48.798;9.798;2022-09-13T05:59:17;7.87;;;4.80;;
7215;SDS011;3649;48.798;9.798;2022-09-13T06:01:44;5.30;;;4.90;;
7215;SDS011;3649;48.798;9.798;2022-09-13T06:04:11;8.23;;;6.30;;
7215;SDS011;3649;48.798;9.798;2022-09-13T06:06:38;8.20;;;5.30;;
7215;SDS011;3649;48.798;9.798;2022-09-13T06:09:05;6.80;;;5.27;;
7215;SDS011;3649;48.798;9.798;2022-09-13T06:11:33;8.67;;;5.17;;
7215;SDS011;3649;48.798;9.798;2022-09-13T06:14:00;5.60;;;4.83;;
7215;SDS011;3649;48.798;9.798;2022-09-13T06:16:27;5.30;;;4.80;;
7215;SDS011;3649;48.798;9.798;2022-09-13T06:18:54;6.80;;;4.67;;
7215;SDS011;3649;48.798;9.798;2022-09-13T06:21:21;6.60;;;5.17;;
7215;SDS011;3649;48.798;9.798;2022-09-13T06:23:53;7.40;;;5.43;;
7215;SDS011;3649;48.798;9.798;2022-09-13T06:26:21;7.77;;;5.00;;
7215;SDS011;3649;48.798;9.798;2022-09-13T06:28:54;5.67;;;4.70;;
7215;SDS011;3649;48.798;9.798;2022-09-13T06:31:23;5.63;;;5.07;;
7215;SDS011;3649;48.798;9.798;2022-09-13T06:33:55;5.80;;;5.30;;
7215;SDS011;3649;48.798;9.798;2022-09-13T06:36:25;5.87;;;5.10;;
7215;SDS011;3649;48.798;9.798;2022-09-13T06:38:52;7.10;;;6.40;;
7215;SDS011;3649;48.798;9.798;2022-09-13T06:41:20;5.20;;;4.80;;
7215;SDS011;3649;48.798;9.798;2022-09-13T06:43:53;5.23;;;4.83;;
7215;SDS011;3649;48.798;9.798;2022-09-13T06:46:22;5.53;;;4.97;;
7215;SDS011;3649;48.798;9.798;2022-09-13T06:48:50;6.33;;;5.00;;
7215;SDS011;3649;48.798;9.798;2022-09-13T06:51:19;5.23;;;4.77;;
7215;SDS011;3649;48.798;9.798;2022-09-13T06:53:47;4.83;;;4.30;;
7215;SDS011;3649;48.798;9.798;2022-09-13T06:56:16;6.83;;;4.73;;
7215;SDS011;3649;48.798;9.798;2022-09-13T06:58:47;6.73;;;4.90;;
7215;SDS011;3649;48.798;9.798;2022-09-13T07:01:16;7.47;;;5.20;;
7215;SDS011;3649;48.798;9.798;2022-09-13T07:03:46;6.50;;;5.10;;
7215;SDS011;3649;48.798;9.798;2022-09-13T07:06:19;6.03;;;5.27;;
7215;SDS011;3649;48.798;9.798;2022-09-13T07:08:48;9.80;;;5.07;;
7215;SDS011;3649;48.798;9.798;2022-09-13T07:11:17;8.87;;;4.90;;
7215;SDS011;3649;48.798;9.798;2022-09-13T07:13:53;6.67;;;4.80;;
7215;SDS011;3649;48.798;9.798;2022-09-13T07:16:22;6.03;;;4.70;;
7215;SDS011;3649;48.798;9.798;2022-09-13T07:18:51;5.67;;;4.80;;
7215;SDS011;3649;48.798;9.798;2022-09-13T07:21:19;7.53;;;4.97;;
7215;SDS011;3649;48.798;9.798;2022-09-13T07:23:47;5.50;;;4.67;;
7215;SDS011;3649;48.798;9.798;2022-09-13T07:26:14;5.70;;;5.20;;
7215;SDS011;3649;48.798;9.798;2022-09-13T07:28:42;5.93;;;5.30;;
7215;SDS011;3649;48.798;9.798;2022-09-13T07:31:15;4.97;;;4.47;;
7215;SDS011;3649;48.798;9.798;2022-09-13T07:33:44;5.90;;;4.90;;
7215;SDS011;3649;48.798;9.798;2022-09-13T07:36:11;6.13;;;4.97;;
7215;SDS011;3649;48.798;9.798;2022-09-13T07:38:39;5.10;;;4.60;;
7215;SDS011;3649;48.798;9.798;2022-09-13T07:41:11;4.90;;;4.43;;
7215;SDS011;3649;48.798;9.798;2022-09-13T07:43:48;5.10;;;4.30;;
7215;SDS011;3649;48.798;9.798;2022-09-13T07:46:18;4.50;;;4.20;;
7215;SDS011;3649;48.798;9.798;2022-09-13T07:48:46;8.87;;;4.40;;
7215;SDS011;3649;48.798;9.798;2022-09-13T07:51:16;10.23;;;6.20;;
7215;SDS011;3649;48.798;9.798;2022-09-13T07:53:45;5.53;;;5.03;;
7215;SDS011;3649;48.798;9.798;2022-09-13T07:56:14;5.47;;;4.50;;
7215;SDS011;3649;48.798;9.798;2022-09-13T07:58:46;10.30;;;5.27;;
7215;SDS011;3649;48.798;9.798;2022-09-13T08:01:18;7.87;;;4.63;;
7215;SDS011;3649;48.798;9.798;2022-09-13T08:03:53;6.00;;;3.80;;
7215;SDS011;3649;48.798;9.798;2022-09-13T08:06:25;4.10;;;3.77;;
7215;SDS011;3649;48.798;9.798;2022-09-13T08:08:55;3.40;;;3.10;;
7215;SDS011;3649;48.798;9.798;2022-09-13T08:11:44;4.77;;;3.37;;
7215;SDS011;3649;48.798;9.798;2022-09-13T08:14:14;10.77;;;4.17;;
7215;SDS011;3649;48.798;9.798;2022-09-13T08:16:42;10.10;;;4.53;;
7215;SDS011;3649;48.798;9.798;2022-09-13T08:19:10;8.60;;;3.80;;
7215;SDS011;3649;48.798;9.798;2022-09-13T08:21:39;4.23;;;3.83;;
7215;SDS011;3649;48.798;9.798;2022-09-13T08:24:10;4.10;;;3.70;;
7215;SDS011;3649;48.798;9.798;2022-09-13T08:26:40;3.70;;;3.40;;
7215;SDS011;3649;48.798;9.798;2022-09-13T08:29:07;3.40;;;3.10;;
7215;SDS011;3649;48.798;9.798;2022-09-13T08:31:34;6.00;;;3.70;;
7215;SDS011;3649;48.798;9.798;2022-09-13T08:34:01;5.30;;;2.97;;
7215;SDS011;3649;48.798;9.798;2022-09-13T08:36:28;2.97;;;2.77;;
7215;SDS011;3649;48.798;9.798;2022-09-13T08:38:56;3.10;;;2.90;;
7215;SDS011;3649;48.798;9.798;2022-09-13T08:44:17;3.67;;;2.73;;
7215;SDS011;3649;48.798;9.798;2022-09-13T08:47:17;4.13;;;3.07;;
7215;SDS011;3649;48.798;9.798;2022-09-13T08:55:24;5.47;;;2.60;;
7215;SDS011;3649;48.798;9.798;2022-09-13T09:00:35;5.30;;;2.57;;
7215;SDS011;3649;48.798;9.798;2022-09-13T09:05:55;4.37;;;2.20;;
7215;SDS011;3649;48.798;9.798;2022-09-13T09:08:30;2.13;;;2.03;;
7215;SDS011;3649;48.798;9.798;2022-09-13T09:11:08;4.37;;;2.50;;
7215;SDS011;3649;48.798;9.798;2022-09-13T09:14:14;2.70;;;2.03;;
7215;SDS011;3649;48.798;9.798;2022-09-13T09:16:47;1.87;;;1.77;;
7215;SDS011;3649;48.798;9.798;2022-09-13T09:21:48;3.33;;;1.90;;
7215;SDS011;3649;48.798;9.798;2022-09-13T09:24:25;2.70;;;2.00;;
7215;SDS011;3649;48.798;9.798;2022-09-13T09:26:52;2.70;;;1.43;;
7215;SDS011;3649;48.798;9.798;2022-09-13T09:29:26;1.53;;;1.50;;
7215;SDS011;3649;48.798;9.798;2022-09-13T09:32:04;1.70;;;1.60;;
7215;SDS011;3649;48.798;9.798;2022-09-13T09:34:47;1.30;;;1.20;;
7215;SDS011;3649;48.798;9.798;2022-09-13T09:37:34;1.67;;;1.30;;
7215;SDS011;3649;48.798;9.798;2022-09-13T09:40:03;1.30;;;1.20;;
7215;SDS011;3649;48.798;9.798;2022-09-13T09:42:38;1.80;;;1.30;;
7215;SDS011;3649;48.798;9.798;2022-09-13T09:45:17;5.33;;;3.87;;
7215;SDS011;3649;48.798;9.798;2022-09-13T09:47:53;5.20;;;4.03;;
7215;SDS011;3649;48.798;9.798;2022-09-13T09:50:29;4.23;;;3.83;;
7215;SDS011;3649;48.798;9.798;2022-09-13T09:53:07;2.90;;;2.63;;
7215;SDS011;3649;48.798;9.798;2022-09-13T09:55:41;2.23;;;1.60;;
7215;SDS011;3649;48.798;9.798;2022-09-13T09:58:12;2.60;;;1.50;;
7215;SDS011;3649;48.798;9.798;2022-09-13T10:00:50;2.50;;;1.50;;
7215;SDS011;3649;48.798;9.798;2022-09-13T10:03:26;2.20;;;1.60;;
7215;SDS011;3649;48.798;9.798;2022-09-13T10:08:45;2.57;;;1.70;;
7215;SDS011;3649;48.798;9.798;2022-09-13T10:11:21;2.30;;;1.80;;
7215;SDS011;3649;48.798;9.798;2022-09-13T10:13:59;3.37;;;1.70;;
7215;SDS011;3649;48.798;9.798;2022-09-13T10:16:28;1.80;;;1.70;;
7215;SDS011;3649;48.798;9.798;2022-09-13T10:22:01;2.50;;;1.53;;
7215;SDS011;3649;48.798;9.798;2022-09-13T10:24:31;1.57;;;1.50;;
7215;SDS011;3649;48.798;9.798;2022-09-13T10:26:58;1.73;;;1.53;;
7215;SDS011;3649;48.798;9.798;2022-09-13T10:29:25;3.50;;;1.50;;
7215;SDS011;3649;48.798;9.798;2022-09-13T10:31:53;3.13;;;1.43;;
7215;SDS011;3649;48.798;9.798;2022-09-13T10:34:27;1.63;;;1.53;;
7215;SDS011;3649;48.798;9.798;2022-09-13T10:39:30;2.27;;;2.07;;
7215;SDS011;3649;48.798;9.798;2022-09-13T10:42:01;1.80;;;1.63;;
7215;SDS011;3649;48.798;9.798;2022-09-13T10:47:26;2.97;;;1.20;;
7215;SDS011;3649;48.798;9.798;2022-09-13T10:49:55;2.73;;;1.50;;
7215;SDS011;3649;48.798;9.798;2022-09-13T10:52:29;2.40;;;1.63;;
7215;SDS011;3649;48.798;9.798;2022-09-13T10:58:31;3.93;;;1.33;;
7215;SDS011;3649;48.798;9.798;2022-09-13T11:06:41;2.30;;;1.50;;
7215;SDS011;3649;48.798;9.798;2022-09-13T11:09:32;1.80;;;1.30;;
7215;SDS011;3649;48.798;9.798;2022-09-13T11:12:07;1.63;;;1.43;;
7215;SDS011;3649;48.798;9.798;2022-09-13T11:20:17;1.23;;;1.13;;
7215;SDS011;3649;48.798;9.798;2022-09-13T11:25:50;1.30;;;1.10;;
7215;SDS011;3649;48.798;9.798;2022-09-13T11:36:48;1.20;;;1.13;;
7215;SDS011;3649;48.798;9.798;2022-09-13T11:39:38;1.63;;;1.30;;
7215;SDS011;3649;48.798;9.798;2022-09-13T11:51:24;1.30;;;1.20;;
7215;SDS011;3649;48.798;9.798;2022-09-13T11:54:32;1.93;;;1.60;;
7215;SDS011;3649;48.798;9.798;2022-09-13T11:57:14;1.70;;;1.60;;
7215;SDS011;3649;48.798;9.798;2022-09-13T11:59:48;2.87;;;1.33;;
7215;SDS011;3649;48.798;9.798;2022-09-13T12:02:28;2.30;;;1.30;;
7215;SDS011;3649;48.798;9.798;2022-09-13T12:05:17;1.50;;;1.40;;
7215;SDS011;3649;48.798;9.798;2022-09-13T12:07:54;1.90;;;1.47;;
7215;SDS011;3649;48.798;9.798;2022-09-13T12:10:29;1.50;;;1.40;;
7215;SDS011;3649;48.798;9.798;2022-09-13T12:13:03;3.47;;;1.70;;
7215;SDS011;3649;48.798;9.798;2022-09-13T12:15:40;1.70;;;1.60;;
7215;SDS011;3649;48.798;9.798;2022-09-13T12:23:49;1.37;;;1.27;;
7215;SDS011;3649;48.798;9.798;2022-09-13T12:29:03;1.03;;;1.00;;
7215;SDS011;3649;48.798;9.798;2022-09-13T12:31:36;1.40;;;0.97;;
7215;SDS011;3649;48.798;9.798;2022-09-13T12:34:04;1.00;;;1.00;;
7215;SDS011;3649;48.798;9.798;2022-09-13T12:36:48;2.20;;;1.30;;
7215;SDS011;3649;48.798;9.798;2022-09-13T12:50:17;1.07;;;0.93;;
7215;SDS011;3649;48.798;9.798;2022-09-13T13:04:51;2.63;;;0.80;;
7215;SDS011;3649;48.798;9.798;2022-09-13T13:07:22;1.00;;;1.00;;
7215;SDS011;3649;48.798;9.798;2022-09-13T13:09:50;1.70;;;1.10;;
7215;SDS011;3649;48.798;9.798;2022-09-13T13:12:27;3.13;;;1.23;;
7215;SDS011;3649;48.798;9.798;2022-09-13T13:15:05;2.10;;;1.33;;
7215;SDS011;3649;48.798;9.798;2022-09-13T13:23:14;1.20;;;1.20;;
7215;SDS011;3649;48.798;9.798;2022-09-13T13:28:50;1.20;;;1.07;;
7215;SDS011;3649;48.798;9.798;2022-09-13T13:39:12;3.00;;;0.90;;
7215;SDS011;3649;48.798;9.798;2022-09-13T13:46:46;1.43;;;1.00;;
7215;SDS011;3649;48.798;9.798;2022-09-13T14:11:32;3.20;;;1.20;;
7215;SDS011;3649;48.798;9.798;2022-09-13T14:14:24;0.83;;;0.83;;
7215;SDS011;3649;48.798;9.798;2022-09-13T14:20:10;1.00;;;1.00;;
7215;SDS011;3649;48.798;9.798;2022-09-13T14:22:43;2.80;;;0.90;;
7215;SDS011;3649;48.798;9.798;2022-09-13T14:27:46;1.57;;;1.40;;
7215;SDS011;3649;48.798;9.798;2022-09-13T14:30:21;1.60;;;1.20;;
7215;SDS011;3649;48.798;9.798;2022-09-13T14:32:55;1.20;;;1.10;;
7215;SDS011;3649;48.798;9.798;2022-09-13T14:35:27;2.93;;;0.77;;
7215;SDS011;3649;48.798;9.798;2022-09-13T14:37:55;1.07;;;1.07;;
7215;SDS011;3649;48.798;9.798;2022-09-13T14:40:34;1.07;;;1.07;;
7215;SDS011;3649;48.798;9.798;2022-09-13T14:43:13;2.17;;;1.10;;
7215;SDS011;3649;48.798;9.798;2022-09-13T14:45:42;0.90;;;0.90;;
7215;SDS011;3649;48.798;9.798;2022-09-13T14:48:16;1.87;;;0.90;;
7215;SDS011;3649;48.798;9.798;2022-09-13T14:50:48;1.23;;;0.93;;
7215;SDS011;3649;48.798;9.798;2022-09-13T14:53:24;2.57;;;1.00;;
7215;SDS011;3649;48.798;9.798;2022-09-13T14:55:55;1.00;;;1.00;;
7215;SDS011;3649;48.798;9.798;2022-09-13T15:01:09;1.20;;;1.20;;
7215;SDS011;3649;48.798;9.798;2022-09-13T15:03:42;1.33;;;1.10;;
7215;SDS011;3649;48.798;9.798;2022-09-13T15:06:23;1.27;;;1.17;;
7215;SDS011;3649;48.798;9.798;2022-09-13T15:09:00;0.97;;;0.97;;
7215;SDS011;3649;48.798;9.798;2022-09-13T15:14:20;0.90;;;0.90;;
7215;SDS011;3649;48.798;9.798;2022-09-13T15:17:05;2.93;;;1.10;;
7215;SDS011;3649;48.798;9.798;2022-09-13T15:19:38;0.73;;;0.73;;
7215;SDS011;3649;48.798;9.798;2022-09-13T15:24:37;1.37;;;0.83;;
7215;SDS011;3649;48.798;9.798;2022-09-13T15:27:17;1.00;;;1.00;;
7215;SDS011;3649;48.798;9.798;2022-09-13T15:29:47;0.77;;;0.77;;
7215;SDS011;3649;48.798;9.798;2022-09-13T15:32:19;3.77;;;0.90;;
7215;SDS011;3649;48.798;9.798;2022-09-13T15:34:57;0.90;;;0.90;;
7215;SDS011;3649;48.798;9.798;2022-09-13T15:37:30;0.80;;;0.80;;
7215;SDS011;3649;48.798;9.798;2022-09-13T15:42:50;0.90;;;0.90;;
7215;SDS011;3649;48.798;9.798;2022-09-13T15:45:18;2.93;;;0.70;;
7215;SDS011;3649;48.798;9.798;2022-09-13T15:47:47;0.93;;;0.93;;
7215;SDS011;3649;48.798;9.798;2022-09-13T15:50:23;2.67;;;0.73;;
7215;SDS011;3649;48.798;9.798;2022-09-13T15:52:53;0.70;;;0.70;;
7215;SDS011;3649;48.798;9.798;2022-09-13T15:55:20;1.07;;;0.77;;
7215;SDS011;3649;48.798;9.798;2022-09-13T15:57:48;1.13;;;0.90;;
7215;SDS011;3649;48.798;9.798;2022-09-13T16:00:16;1.93;;;1.10;;
7215;SDS011;3649;48.798;9.798;2022-09-13T16:02:45;0.63;;;0.63;;
7215;SDS011;3649;48.798;9.798;2022-09-13T16:05:12;0.73;;;0.73;;
7215;SDS011;3649;48.798;9.798;2022-09-13T16:07:39;1.03;;;0.80;;
7215;SDS011;3649;48.798;9.798;2022-09-13T16:10:26;0.77;;;0.77;;
7215;SDS011;3649;48.798;9.798;2022-09-13T16:12:53;0.87;;;0.87;;
7215;SDS011;3649;48.798;9.798;2022-09-13T16:15:20;0.77;;;0.70;;
7215;SDS011;3649;48.798;9.798;2022-09-13T16:17:47;0.83;;;0.80;;
7215;SDS011;3649;48.798;9.798;2022-09-13T16:20:14;1.50;;;0.90;;
7215;SDS011;3649;48.798;9.798;2022-09-13T16:22:41;1.10;;;1.00;;
7215;SDS011;3649;48.798;9.798;2022-09-13T16:25:08;0.90;;;0.90;;
7215;SDS011;3649;48.798;9.798;2022-09-13T16:27:40;1.13;;;1.00;;
7215;SDS011;3649;48.798;9.798;2022-09-13T16:30:15;2.53;;;1.23;;
7215;SDS011;3649;48.798;9.798;2022-09-13T16:32:47;1.10;;;1.00;;
7215;SDS011;3649;48.798;9.798;2022-09-13T16:35:14;1.17;;;1.10;;
7215;SDS011;3649;48.798;9.798;2022-09-13T16:37:42;1.27;;;1.20;;
7215;SDS011;3649;48.798;9.798;2022-09-13T16:40:11;7.67;;;1.50;;
7215;SDS011;3649;48.798;9.798;2022-09-13T16:42:50;2.13;;;1.80;;
7215;SDS011;3649;48.798;9.798;2022-09-13T16:46:05;2.13;;;1.50;;
7215;SDS011;3649;48.798;9.798;2022-09-13T16:57:20;1.87;;;1.77;;
7215;SDS011;3649;48.798;9.798;2022-09-13T17:14:28;3.33;;;1.20;;
7215;SDS011;3649;48.798;9.798;2022-09-13T17:20:55;2.50;;;1.40;;
7215;SDS011;3649;48.798;9.798;2022-09-13T17:30:36;3.67;;;1.80;;
7215;SDS011;3649;48.798;9.798;2022-09-13T17:37:02;3.43;;;2.10;;
7215;SDS011;3649;48.798;9.798;2022-09-13T17:48:08;4.23;;;1.73;;
7215;SDS011;3649;48.798;9.798;2022-09-13T17:51:12;2.43;;;1.40;;
7215;SDS011;3649;48.798;9.798;2022-09-13T17:53:46;2.87;;;1.90;;
7215;SDS011;3649;48.798;9.798;2022-09-13T17:56:21;4.50;;;1.90;;
7215;SDS011;3649;48.798;9.798;2022-09-13T17:59:14;2.20;;;1.97;;
7215;SDS011;3649;48.798;9.798;2022-09-13T18:01:43;2.00;;;1.80;;
7215;SDS011;3649;48.798;9.798;2022-09-13T18:04:12;2.60;;;1.80;;
7215;SDS011;3649;48.798;9.798;2022-09-13T18:06:42;4.10;;;1.90;;
7215;SDS011;3649;48.798;9.798;2022-09-13T18:09:09;2.20;;;1.67;;
7215;SDS011;3649;48.798;9.798;2022-09-13T18:11:37;1.77;;;1.67;;
7215;SDS011;3649;48.798;9.798;2022-09-13T18:14:05;2.37;;;2.20;;
7215;SDS011;3649;48.798;9.798;2022-09-13T18:16:35;4.57;;;1.80;;
7215;SDS011;3649;48.798;9.798;2022-09-13T18:19:02;4.10;;;2.20;;
7215;SDS011;3649;48.798;9.798;2022-09-13T18:21:29;3.20;;;1.87;;
7215;SDS011;3649;48.798;9.798;2022-09-13T18:23:57;2.53;;;2.17;;
7215;SDS011;3649;48.798;9.798;2022-09-13T18:26:27;4.53;;;2.37;;
7215;SDS011;3649;48.798;9.798;2022-09-13T18:28:56;3.67;;;2.03;;
7215;SDS011;3649;48.798;9.798;2022-09-13T18:31:27;3.10;;;2.40;;
7215;SDS011;3649;48.798;9.798;2022-09-13T18:33:56;4.30;;;2.60;;
7215;SDS011;3649;48.798;9.798;2022-09-13T18:36:25;2.73;;;2.40;;
7215;SDS011;3649;48.798;9.798;2022-09-13T18:38:53;2.17;;;2.00;;
7215;SDS011;3649;48.798;9.798;2022-09-13T18:41:25;4.60;;;2.30;;
7215;SDS011;3649;48.798;9.798;2022-09-13T18:43:53;6.03;;;2.40;;
7215;SDS011;3649;48.798;9.798;2022-09-13T18:46:22;3.80;;;2.63;;
7215;SDS011;3649;48.798;9.798;2022-09-13T18:48:51;5.33;;;2.60;;
7215;SDS011;3649;48.798;9.798;2022-09-13T18:51:21;4.93;;;2.60;;
7215;SDS011;3649;48.798;9.798;2022-09-13T18:53:50;5.73;;;2.70;;
7215;SDS011;3649;48.798;9.798;2022-09-13T18:56:21;3.40;;;2.40;;
7215;SDS011;3649;48.798;9.798;2022-09-13T18:58:49;2.70;;;2.00;;
7215;SDS011;3649;48.798;9.798;2022-09-13T19:01:19;4.43;;;2.50;;
7215;SDS011;3649;48.798;9.798;2022-09-13T19:03:52;3.80;;;2.40;;
7215;SDS011;3649;48.798;9.798;2022-09-13T19:06:27;2.50;;;2.30;;
7215;SDS011;3649;48.798;9.798;2022-09-13T19:08:55;3.00;;;2.70;;
7215;SDS011;3649;48.798;9.798;2022-09-13T19:11:24;5.80;;;2.33;;
7215;SDS011;3649;48.798;9.798;2022-09-13T19:14:12;2.60;;;2.23;;
7215;SDS011;3649;48.798;9.798;2022-09-13T19:16:44;3.07;;;2.07;;
7215;SDS011;3649;48.798;9.798;2022-09-13T19:19:11;6.20;;;2.37;;
7215;SDS011;3649;48.798;9.798;2022-09-13T19:21:38;4.13;;;2.07;;
7215;SDS011;3649;48.798;9.798;2022-09-13T19:24:06;6.53;;;2.63;;
7215;SDS011;3649;48.798;9.798;2022-09-13T19:26:42;5.30;;;2.60;;
7215;SDS011;3649;48.798;9.798;2022-09-13T19:29:11;2.90;;;2.30;;
7215;SDS011;3649;48.798;9.798;2022-09-13T19:31:41;4.43;;;2.43;;
7215;SDS011;3649;48.798;9.798;2022-09-13T19:34:09;5.70;;;2.67;;
7215;SDS011;3649;48.798;9.798;2022-09-13T19:36:38;5.03;;;2.40;;
7215;SDS011;3649;48.798;9.798;2022-09-13T19:39:07;3.87;;;2.40;;
7215;SDS011;3649;48.798;9.798;2022-09-13T19:41:35;6.10;;;2.50;;
7215;SDS011;3649;48.798;9.798;2022-09-13T19:44:03;3.47;;;3.17;;
7215;SDS011;3649;48.798;9.798;2022-09-13T19:46:32;3.30;;;3.00;;
7215;SDS011;3649;48.798;9.798;2022-09-13T19:49:01;3.53;;;2.93;;
7215;SDS011;3649;48.798;9.798;2022-09-13T19:51:32;5.80;;;2.80;;
7215;SDS011;3649;48.798;9.798;2022-09-13T19:54:01;2.60;;;2.40;;
7215;SDS011;3649;48.798;9.798;2022-09-13T19:56:30;3.00;;;2.80;;
7215;SDS011;3649;48.798;9.798;2022-09-13T19:58:59;6.87;;;3.10;;
7215;SDS011;3649;48.798;9.798;2022-09-13T20:01:28;4.27;;;2.60;;
7215;SDS011;3649;48.798;9.798;2022-09-13T20:03:57;3.13;;;2.93;;
7215;SDS011;3649;48.798;9.798;2022-09-13T20:06:27;6.53;;;3.50;;
7215;SDS011;3649;48.798;9.798;2022-09-13T20:08:59;2.70;;;2.50;;
7215;SDS011;3649;48.798;9.798;2022-09-13T20:11:26;5.23;;;3.00;;